createdAt,value
2017-09-07T00:01:22.337Z,91.40
2017-09-07T00:03:50.726Z,91.30
2017-09-07T00:06:19.114Z,91.40
2017-09-07T00:08:47.581Z,91.50
2017-09-07T00:11:16.142Z,91.40
2017-09-07T00:13:44.558Z,91.10
2017-09-07T00:16:12.982Z,91.30
2017-09-07T00:18:41.411Z,91.30
2017-09-07T00:21:09.859Z,91.40
2017-09-07T00:23:38.326Z,91.10
2017-09-07T00:26:06.788Z,90.90
2017-09-07T00:28:35.171Z,91.30
2017-09-07T00:31:03.594Z,91.20
2017-09-07T00:33:32.772Z,91.20
2017-09-07T00:36:01.200Z,91.20
2017-09-07T00:38:29.674Z,91.30
2017-09-07T00:40:58.233Z,91.30
2017-09-07T00:43:27.420Z,91.30
2017-09-07T00:45:56.671Z,91.30
2017-09-07T00:48:25.088Z,91.20
2017-09-07T00:50:53.577Z,91.30
2017-09-07T00:53:22.055Z,91.20
2017-09-07T00:55:50.516Z,91.20
2017-09-07T00:58:18.960Z,91.20
2017-09-07T01:00:47.392Z,91.10
2017-09-07T01:03:15.868Z,91.10
2017-09-07T01:05:44.466Z,91.20
2017-09-07T01:08:13.649Z,91.10
2017-09-07T01:10:42.067Z,91.10
2017-09-07T01:13:10.525Z,91.00
2017-09-07T01:15:39.783Z,91.20
2017-09-07T01:18:08.176Z,91.10
2017-09-07T01:20:36.736Z,90.90
2017-09-07T01:23:05.300Z,90.90
2017-09-07T01:25:33.723Z,90.80
2017-09-07T01:28:02.164Z,91.10
2017-09-07T01:30:30.589Z,91.00
2017-09-07T01:32:59.050Z,91.10
2017-09-07T01:35:27.573Z,91.10
2017-09-07T01:37:55.969Z,91.20
2017-09-07T01:40:25.137Z,91.20
2017-09-07T01:42:53.649Z,91.20
2017-09-07T01:45:22.846Z,91.30
2017-09-07T01:47:51.329Z,91.20
2017-09-07T01:50:19.841Z,91.10
2017-09-07T01:52:48.226Z,91.10
2017-09-07T01:55:16.703Z,91.20
2017-09-07T01:57:45.128Z,90.90
2017-09-07T02:00:14.371Z,91.50
2017-09-07T02:02:42.853Z,91.20
2017-09-07T02:05:11.266Z,91.20
2017-09-07T02:07:39.688Z,91.20
2017-09-07T02:10:08.892Z,91.40
2017-09-07T02:12:37.344Z,91.30
2017-09-07T02:15:06.522Z,91.50
2017-09-07T02:17:35.121Z,91.50
2017-09-07T02:20:03.624Z,91.40
2017-09-07T02:22:32.845Z,91.40
2017-09-07T02:25:01.236Z,91.40
2017-09-07T02:27:29.637Z,91.40
2017-09-07T02:29:58.334Z,91.50
2017-09-07T02:32:26.792Z,91.60
2017-09-07T02:34:55.195Z,91.60
2017-09-07T02:37:23.609Z,91.50
2017-09-07T02:39:52.028Z,91.70
2017-09-07T02:42:20.451Z,92.00
2017-09-07T02:44:49.614Z,92.20
2017-09-07T02:47:18.151Z,91.90
2017-09-07T02:49:47.322Z,91.90
2017-09-07T02:52:15.710Z,91.90
2017-09-07T02:54:44.172Z,91.70
2017-09-07T02:57:12.567Z,92.00
2017-09-07T02:59:41.007Z,91.90
2017-09-07T03:02:09.515Z,91.90
2017-09-07T03:04:37.997Z,91.70
2017-09-07T03:07:06.416Z,91.90
2017-09-07T03:09:35.671Z,91.80
2017-09-07T03:12:04.146Z,91.70
2017-09-07T03:14:32.651Z,91.80
2017-09-07T03:17:01.290Z,91.90
2017-09-07T03:19:29.812Z,91.60
2017-09-07T03:21:58.213Z,91.80
2017-09-07T03:24:27.420Z,91.60
2017-09-07T03:26:56.595Z,91.80
2017-09-07T03:29:25.035Z,91.80
2017-09-07T03:31:53.530Z,91.90
2017-09-07T03:34:21.950Z,91.90
2017-09-07T03:36:50.378Z,91.70
2017-09-07T03:39:18.918Z,91.90
2017-09-07T03:41:47.385Z,91.80
2017-09-07T03:44:16.630Z,92.20
2017-09-07T03:46:45.114Z,92.20
2017-09-07T03:49:13.515Z,92.40
2017-09-07T03:51:41.950Z,92.40
2017-09-07T03:54:10.431Z,92.30
2017-09-07T03:56:39.641Z,92.20
2017-09-07T03:59:08.929Z,92.30
2017-09-07T04:01:38.107Z,92.40
2017-09-07T04:04:07.025Z,92.40
2017-09-07T04:06:35.447Z,92.40
2017-09-07T04:09:03.885Z,92.50
2017-09-07T04:11:33.096Z,92.40
2017-09-07T04:14:01.725Z,92.40
2017-09-07T04:16:31.220Z,92.60
2017-09-07T04:18:59.676Z,92.70
2017-09-07T04:21:28.162Z,92.70
2017-09-07T04:23:56.549Z,92.80
2017-09-07T04:26:24.967Z,92.60
2017-09-07T04:28:53.440Z,92.80
2017-09-07T04:31:21.866Z,92.90
2017-09-07T04:33:50.387Z,92.70
2017-09-07T04:36:18.893Z,93.10
2017-09-07T04:38:47.323Z,92.90
2017-09-07T04:41:15.949Z,92.60
2017-09-07T04:43:44.411Z,92.70
2017-09-07T04:46:12.843Z,92.80
2017-09-07T04:48:42.099Z,92.80
2017-09-07T04:51:10.510Z,92.70
2017-09-07T04:53:39.700Z,92.90
2017-09-07T04:56:08.194Z,92.90
2017-09-07T04:58:37.406Z,92.90
2017-09-07T05:01:06.576Z,92.90
2017-09-07T05:03:35.048Z,92.90
2017-09-07T05:06:03.564Z,93.00
2017-09-07T05:08:31.985Z,93.10
2017-09-07T05:11:00.427Z,93.10
2017-09-07T05:13:29.671Z,93.00
2017-09-07T05:15:58.064Z,93.00
2017-09-07T05:18:26.486Z,93.20
2017-09-07T05:20:54.881Z,93.20
2017-09-07T05:23:23.529Z,93.20
2017-09-07T05:25:52.744Z,93.10
2017-09-07T05:28:21.959Z,93.20
2017-09-07T05:30:50.449Z,93.20
2017-09-07T05:33:18.859Z,93.10
2017-09-07T05:35:48.072Z,93.00
2017-09-07T05:38:16.487Z,93.00
2017-09-07T05:40:44.916Z,92.90
2017-09-07T05:43:13.470Z,93.00
2017-09-07T05:45:41.924Z,93.30
2017-09-07T05:48:11.146Z,93.20
2017-09-07T05:50:39.552Z,93.10
2017-09-07T05:53:07.995Z,92.90
2017-09-07T05:55:36.386Z,92.90
2017-09-07T05:58:04.950Z,92.80
2017-09-07T06:00:34.183Z,92.70
2017-09-07T06:03:02.606Z,92.70
2017-09-07T06:05:31.780Z,93.10
2017-09-07T06:08:00.217Z,92.90
2017-09-07T06:10:28.646Z,92.70
2017-09-07T06:12:57.156Z,92.70
2017-09-07T06:15:25.687Z,92.40
2017-09-07T06:17:54.104Z,92.60
2017-09-07T06:20:22.529Z,92.40
2017-09-07T06:22:51.001Z,92.20
2017-09-07T06:25:19.470Z,92.40
2017-09-07T06:27:48.667Z,91.90
2017-09-07T06:30:17.120Z,91.90
2017-09-07T06:32:45.507Z,91.90
2017-09-07T06:35:14.693Z,91.30
2017-09-07T06:37:43.217Z,91.50
2017-09-07T06:40:11.645Z,91.60
2017-09-07T06:42:40.099Z,91.90
2017-09-07T06:45:08.497Z,91.70
2017-09-07T06:47:36.936Z,91.50
2017-09-07T06:50:05.324Z,91.90
2017-09-07T06:52:33.721Z,92.10
2017-09-07T06:55:02.222Z,91.80
2017-09-07T06:57:30.620Z,91.90
2017-09-07T06:59:59.023Z,91.70
2017-09-07T07:02:28.204Z,91.90
2017-09-07T07:04:57.419Z,92.40
2017-09-07T07:07:25.849Z,92.40
2017-09-07T07:09:54.386Z,92.40
2017-09-07T07:12:22.952Z,92.00
2017-09-07T07:14:52.152Z,92.50
2017-09-07T07:17:21.325Z,92.40
2017-09-07T07:19:49.741Z,92.40
2017-09-07T07:22:18.926Z,92.20
2017-09-07T07:24:48.117Z,92.00
2017-09-07T07:27:17.311Z,92.30
2017-09-07T07:29:46.508Z,92.00
2017-09-07T07:32:14.891Z,92.00
2017-09-07T07:34:44.071Z,91.20
2017-09-07T07:37:12.499Z,91.20
2017-09-07T07:39:40.939Z,91.40
2017-09-07T07:42:09.398Z,91.60
2017-09-07T07:44:37.827Z,91.70
2017-09-07T07:47:07.068Z,92.40
2017-09-07T07:49:35.490Z,92.40
2017-09-07T07:52:03.967Z,92.60
2017-09-07T07:54:32.403Z,92.80
2017-09-07T07:57:00.796Z,92.20
2017-09-07T07:59:29.273Z,92.20
2017-09-07T08:01:58.028Z,91.60
2017-09-07T08:04:26.446Z,91.90
2017-09-07T08:06:54.862Z,91.20
2017-09-07T08:09:23.390Z,91.30
2017-09-07T08:11:51.831Z,91.00
2017-09-07T08:14:21.112Z,91.10
2017-09-07T08:16:49.528Z,91.10
2017-09-07T08:19:17.964Z,90.50
2017-09-07T08:21:46.413Z,90.30
2017-09-07T08:24:14.841Z,88.40
2017-09-07T08:26:44.023Z,88.30
2017-09-07T08:29:12.490Z,88.20
2017-09-07T08:31:40.930Z,86.00
2017-09-07T08:34:09.336Z,86.70
2017-09-07T08:36:37.778Z,88.10
2017-09-07T08:39:06.353Z,88.30
2017-09-07T08:41:38.606Z,87.80
2017-09-07T08:44:07.026Z,87.80
2017-09-07T08:46:35.506Z,87.70
2017-09-07T08:49:03.967Z,88.10
2017-09-07T08:51:33.186Z,88.40
2017-09-07T08:54:01.587Z,88.40
2017-09-07T08:56:30.007Z,84.50
2017-09-07T08:58:59.227Z,78.20
2017-09-07T09:01:27.669Z,78.10
2017-09-07T09:03:56.169Z,81.30
2017-09-07T09:06:25.530Z,79.00
2017-09-07T09:08:53.923Z,78.90
2017-09-07T09:11:22.357Z,77.10
2017-09-07T09:13:50.808Z,78.00
2017-09-07T09:16:20.054Z,80.60
2017-09-07T09:18:48.626Z,80.60
2017-09-07T09:21:17.190Z,81.50
2017-09-07T09:23:46.589Z,81.20
2017-09-07T09:26:15.791Z,82.50
2017-09-07T09:28:44.258Z,82.40
2017-09-07T09:31:13.466Z,81.80
2017-09-07T09:33:42.673Z,81.70
2017-09-07T09:36:11.087Z,81.70
2017-09-07T09:38:39.596Z,80.90
2017-09-07T09:41:08.008Z,81.10
2017-09-07T09:43:37.216Z,79.60
2017-09-07T09:46:05.619Z,79.60
2017-09-07T09:48:34.464Z,81.00
2017-09-07T09:51:03.733Z,80.60
2017-09-07T09:53:32.176Z,80.50
2017-09-07T09:56:00.620Z,80.10
2017-09-07T09:58:29.865Z,81.20
2017-09-07T10:00:58.280Z,81.30
2017-09-07T10:03:26.684Z,81.00
2017-09-07T10:05:55.922Z,78.20
2017-09-07T10:08:24.384Z,78.60
2017-09-07T10:10:52.798Z,73.20
2017-09-07T10:13:21.230Z,71.40
2017-09-07T10:15:50.402Z,69.90
2017-09-07T10:18:18.863Z,69.90
2017-09-07T10:20:47.494Z,68.40
2017-09-07T10:23:16.764Z,70.00
2017-09-07T10:25:46.248Z,69.90
2017-09-07T10:28:14.795Z,67.60
2017-09-07T10:30:43.186Z,70.40
2017-09-07T10:33:11.585Z,71.00
2017-09-07T10:35:40.118Z,70.20
2017-09-07T10:38:08.943Z,69.50
2017-09-07T10:40:37.334Z,66.10
2017-09-07T10:43:05.776Z,70.20
2017-09-07T10:45:34.940Z,75.90
2017-09-07T10:48:03.433Z,75.90
2017-09-07T10:50:32.652Z,77.30
2017-09-07T10:53:01.058Z,77.20
2017-09-07T10:55:30.315Z,76.70
2017-09-07T10:57:59.573Z,76.60
2017-09-07T11:00:28.028Z,76.40
2017-09-07T11:02:56.433Z,73.30
2017-09-07T11:05:24.858Z,76.10
2017-09-07T11:07:54.038Z,71.50
2017-09-07T11:10:22.459Z,71.50
2017-09-07T11:12:50.901Z,76.50
2017-09-07T11:15:19.308Z,75.40
2017-09-07T11:17:47.698Z,75.40
2017-09-07T11:20:16.128Z,73.70
2017-09-07T11:22:45.192Z,72.80
2017-09-07T11:25:13.694Z,73.20
2017-09-07T11:27:42.179Z,72.30
2017-09-07T11:30:11.552Z,75.40
2017-09-07T11:32:39.983Z,74.80
2017-09-07T11:35:09.178Z,75.00
2017-09-07T11:37:37.578Z,75.00
2017-09-07T11:40:06.090Z,74.80
2017-09-07T11:42:34.646Z,75.80
2017-09-07T11:45:03.809Z,75.40
2017-09-07T11:47:32.207Z,75.40
2017-09-07T11:50:01.405Z,76.40
2017-09-07T11:52:29.932Z,76.40
2017-09-07T11:54:58.362Z,80.00
2017-09-07T11:57:27.657Z,78.90
2017-09-07T11:59:56.099Z,78.70
2017-09-07T12:02:24.523Z,79.70
2017-09-07T12:04:53.706Z,76.60
2017-09-07T12:07:22.276Z,76.10
2017-09-07T12:09:51.639Z,71.40
2017-09-07T12:12:20.037Z,69.80
2017-09-07T12:14:48.493Z,72.80
2017-09-07T12:17:17.040Z,71.70
2017-09-07T12:19:45.464Z,66.80
2017-09-07T12:22:13.987Z,68.20
2017-09-07T12:24:42.448Z,71.70
2017-09-07T12:27:10.861Z,72.20
2017-09-07T12:29:39.378Z,75.90
2017-09-07T12:32:07.814Z,78.00
2017-09-07T12:34:36.214Z,74.40
2017-09-07T12:37:05.386Z,74.20
2017-09-07T12:39:34.554Z,74.20
2017-09-07T12:42:02.979Z,75.70
2017-09-07T12:44:32.171Z,75.90
2017-09-07T12:47:00.596Z,75.70
2017-09-07T12:49:28.983Z,75.40
2017-09-07T12:51:57.405Z,75.30
2017-09-07T12:54:25.887Z,74.10
2017-09-07T12:56:54.356Z,74.80
2017-09-07T12:59:22.809Z,73.50
2017-09-07T13:01:51.245Z,74.30
2017-09-07T13:04:20.417Z,70.50
2017-09-07T13:06:48.826Z,69.90
2017-09-07T13:09:18.078Z,66.70
2017-09-07T13:11:46.564Z,66.60
2017-09-07T13:14:14.973Z,66.20
2017-09-07T13:16:43.394Z,65.80
2017-09-07T13:19:11.841Z,66.90
2017-09-07T13:21:40.276Z,65.00
2017-09-07T13:24:09.024Z,66.10
2017-09-07T13:26:39.362Z,68.40
2017-09-07T13:29:08.014Z,68.50
2017-09-07T13:31:36.658Z,68.20
2017-09-07T13:34:05.097Z,66.90
2017-09-07T13:36:34.366Z,66.80
2017-09-07T13:39:02.823Z,66.90
2017-09-07T13:41:31.854Z,66.80
2017-09-07T13:44:00.358Z,65.00
2017-09-07T13:46:29.539Z,63.20
2017-09-07T13:48:58.030Z,63.20
2017-09-07T13:51:27.212Z,64.50
2017-09-07T13:53:56.525Z,64.00
2017-09-07T13:56:25.891Z,62.60
2017-09-07T13:58:57.374Z,62.50
2017-09-07T14:01:26.811Z,64.40
2017-09-07T14:03:55.238Z,64.30
2017-09-07T14:06:23.684Z,62.80
2017-09-07T14:08:52.262Z,61.90
2017-09-07T14:11:20.740Z,62.80
2017-09-07T14:13:49.214Z,62.10
2017-09-07T14:16:17.866Z,63.80
2017-09-07T14:18:47.708Z,62.50
2017-09-07T14:21:16.182Z,60.70
2017-09-07T14:23:44.737Z,60.80
2017-09-07T14:26:13.156Z,63.10
2017-09-07T14:28:41.806Z,64.60
2017-09-07T14:31:11.130Z,65.40
2017-09-07T14:33:39.530Z,64.90
2017-09-07T14:36:08.195Z,63.10
2017-09-07T14:38:36.889Z,62.80
2017-09-07T14:41:05.312Z,62.70
2017-09-07T14:43:33.816Z,64.00
2017-09-07T14:46:02.306Z,65.60
2017-09-07T14:48:31.594Z,65.00
2017-09-07T14:51:00.039Z,64.80
2017-09-07T14:53:28.507Z,65.70
2017-09-07T14:55:56.923Z,66.80
2017-09-07T14:58:25.344Z,65.20
2017-09-07T15:00:53.838Z,67.10
2017-09-07T15:03:22.402Z,68.00
2017-09-07T15:05:51.714Z,67.90
2017-09-07T15:08:20.274Z,67.90
2017-09-07T15:10:49.475Z,71.60
2017-09-07T15:13:18.658Z,72.30
2017-09-07T15:15:47.111Z,72.20
2017-09-07T15:18:15.498Z,73.50
2017-09-07T15:20:43.934Z,74.10
2017-09-07T15:23:12.432Z,74.40
2017-09-07T15:25:41.584Z,75.00
2017-09-07T15:28:10.783Z,75.40
2017-09-07T15:30:39.238Z,75.50
2017-09-07T15:33:08.726Z,74.30
2017-09-07T15:35:37.215Z,73.90
2017-09-07T15:38:05.654Z,75.10
2017-09-07T15:40:34.102Z,74.20
2017-09-07T15:43:02.507Z,74.90
2017-09-07T15:45:31.715Z,73.00
2017-09-07T15:48:00.122Z,73.00
2017-09-07T15:50:28.538Z,75.20
2017-09-07T15:52:57.006Z,72.60
2017-09-07T15:55:25.461Z,73.70
2017-09-07T15:57:53.865Z,73.90
2017-09-07T16:00:22.308Z,74.30
2017-09-07T16:02:50.807Z,75.20
2017-09-07T16:05:19.292Z,74.30
2017-09-07T16:07:47.805Z,74.50
2017-09-07T16:10:16.200Z,75.60
2017-09-07T16:12:45.766Z,76.40
2017-09-07T16:15:14.238Z,76.30
2017-09-07T16:17:43.796Z,75.90
2017-09-07T16:20:12.968Z,76.10
2017-09-07T16:22:41.431Z,76.10
2017-09-07T16:25:09.845Z,74.90
2017-09-07T16:27:38.361Z,73.80
2017-09-07T16:30:06.815Z,73.40
2017-09-07T16:32:35.269Z,75.00
2017-09-07T16:35:03.670Z,75.10
2017-09-07T16:37:32.937Z,76.20
2017-09-07T16:40:02.131Z,75.90
2017-09-07T16:42:30.522Z,75.90
2017-09-07T16:44:58.962Z,76.90
2017-09-07T16:47:27.355Z,77.30
2017-09-07T16:49:55.839Z,77.80
2017-09-07T16:52:24.251Z,78.20
2017-09-07T16:54:52.655Z,78.00
2017-09-07T16:57:21.889Z,78.50
2017-09-07T16:59:50.309Z,78.40
2017-09-07T17:02:19.530Z,79.60
2017-09-07T17:04:48.815Z,79.70
2017-09-07T17:07:17.296Z,79.80
2017-09-07T17:09:46.617Z,79.30
2017-09-07T17:12:15.021Z,79.30
2017-09-07T17:14:43.437Z,80.10
2017-09-07T17:17:11.957Z,80.00
2017-09-07T17:19:40.424Z,80.30
2017-09-07T17:22:09.688Z,80.80
2017-09-07T17:24:38.198Z,80.80
2017-09-07T17:27:06.644Z,80.90
2017-09-07T17:29:35.058Z,81.30
2017-09-07T17:32:03.515Z,82.30
2017-09-07T17:34:31.960Z,81.30
2017-09-07T17:37:00.410Z,81.90
2017-09-07T17:39:29.701Z,83.10
2017-09-07T17:41:58.166Z,83.00
2017-09-07T17:44:26.580Z,82.70
2017-09-07T17:46:55.809Z,84.50
2017-09-07T17:49:24.218Z,84.50
2017-09-07T17:51:53.422Z,84.80
2017-09-07T17:54:22.779Z,84.90
2017-09-07T17:56:51.276Z,84.60
2017-09-07T17:59:19.726Z,85.10
2017-09-07T18:01:48.186Z,84.60
2017-09-07T18:04:17.385Z,85.30
2017-09-07T18:06:45.879Z,84.60
2017-09-07T18:09:15.108Z,85.40
2017-09-07T18:11:43.642Z,85.40
2017-09-07T18:14:13.154Z,86.10
2017-09-07T18:16:41.574Z,86.10
2017-09-07T18:19:10.036Z,86.70
2017-09-07T18:21:38.736Z,86.60
2017-09-07T18:24:07.217Z,86.70
2017-09-07T18:26:35.729Z,87.00
2017-09-07T18:29:04.278Z,87.00
2017-09-07T18:31:32.705Z,87.30
2017-09-07T18:34:01.560Z,87.30
2017-09-07T18:36:31.007Z,87.50
2017-09-07T18:38:59.458Z,87.80
2017-09-07T18:41:28.938Z,88.00
2017-09-07T18:43:57.383Z,88.50
2017-09-07T18:46:26.553Z,88.40
2017-09-07T18:48:55.072Z,88.40
2017-09-07T18:51:24.266Z,89.10
2017-09-07T18:53:53.462Z,89.40
2017-09-07T18:56:22.725Z,89.60
2017-09-07T18:58:51.169Z,89.50
2017-09-07T19:01:20.073Z,89.70
2017-09-07T19:03:48.482Z,90.10
2017-09-07T19:08:51.513Z,90.30
2017-09-07T19:11:20.756Z,90.40
2017-09-07T19:13:49.171Z,90.40
2017-09-07T19:16:17.586Z,90.50
2017-09-07T19:18:46.739Z,90.70
2017-09-07T19:21:15.227Z,90.70
2017-09-07T19:23:43.681Z,90.80
2017-09-07T19:26:12.972Z,90.80
2017-09-07T19:28:41.409Z,90.80
2017-09-07T19:31:10.623Z,90.90
2017-09-07T19:33:52.470Z,91.10
2017-09-07T19:36:20.963Z,91.10
2017-09-07T19:38:49.367Z,91.10
2017-09-07T19:41:18.562Z,91.30
2017-09-07T19:43:47.766Z,91.60
2017-09-07T19:46:16.966Z,91.60
2017-09-07T19:48:45.378Z,91.60
2017-09-07T19:51:14.901Z,91.60
2017-09-07T19:53:43.376Z,91.70
2017-09-07T19:56:11.886Z,91.70
2017-09-07T19:58:40.293Z,91.70
2017-09-07T20:01:08.821Z,91.80
2017-09-07T20:03:37.273Z,91.90
2017-09-07T20:06:05.710Z,91.80
2017-09-07T20:08:34.183Z,92.00
2017-09-07T20:11:02.679Z,92.00
2017-09-07T20:13:31.075Z,92.10
2017-09-07T20:16:00.257Z,92.30
2017-09-07T20:18:29.425Z,92.20
2017-09-07T20:20:57.848Z,92.10
2017-09-07T20:23:26.339Z,92.40
2017-09-07T20:25:55.517Z,92.20
2017-09-07T20:28:24.766Z,92.40
2017-09-07T20:30:53.185Z,92.40
2017-09-07T20:33:21.604Z,92.60
2017-09-07T20:35:50.104Z,92.70
2017-09-07T20:38:18.554Z,92.60
2017-09-07T20:40:46.989Z,92.70
2017-09-07T20:43:16.211Z,92.70
2017-09-07T20:45:44.662Z,92.70
2017-09-07T20:48:13.129Z,92.80
2017-09-07T20:50:41.611Z,93.20
2017-09-07T20:53:10.006Z,92.90
2017-09-07T20:55:39.373Z,93.00
2017-09-07T20:58:07.798Z,93.00
2017-09-07T21:00:36.215Z,93.00
2017-09-07T21:03:05.383Z,93.10
2017-09-07T21:05:33.969Z,93.10
2017-09-07T21:08:02.396Z,93.00
2017-09-07T21:10:30.821Z,92.90
2017-09-07T21:12:59.223Z,92.90
2017-09-07T21:15:28.398Z,93.00
2017-09-07T21:17:56.869Z,92.70
2017-09-07T21:20:25.353Z,92.70
2017-09-07T21:22:53.773Z,92.70
2017-09-07T21:25:22.951Z,92.60
2017-09-07T21:27:51.361Z,92.60
2017-09-07T21:30:20.868Z,92.60
2017-09-07T21:32:49.258Z,92.70
2017-09-07T21:35:17.705Z,92.70
2017-09-07T21:37:46.938Z,92.60
2017-09-07T21:40:15.416Z,92.60
2017-09-07T21:42:43.862Z,92.50
2017-09-07T21:45:13.031Z,92.50
2017-09-07T21:47:41.454Z,92.40
2017-09-07T21:50:09.915Z,92.40
2017-09-07T21:52:38.357Z,92.30
2017-09-07T21:55:06.795Z,92.40
2017-09-07T21:57:35.263Z,92.40
2017-09-07T22:00:04.510Z,92.40
2017-09-07T22:02:32.959Z,92.10
2017-09-07T22:05:02.161Z,92.00
2017-09-07T22:07:31.094Z,92.00
2017-09-07T22:09:59.508Z,91.70
2017-09-07T22:12:28.723Z,91.60
2017-09-07T22:14:57.153Z,91.60
2017-09-07T22:17:25.621Z,91.60
2017-09-07T22:19:54.128Z,91.60
2017-09-07T22:22:22.588Z,91.40
2017-09-07T22:24:51.035Z,91.20
2017-09-07T22:27:20.210Z,91.20
2017-09-07T22:29:48.650Z,91.20
2017-09-07T22:32:17.995Z,91.10
2017-09-07T22:34:47.169Z,91.40
2017-09-07T22:37:15.614Z,91.20
2017-09-07T22:39:44.012Z,90.90
2017-09-07T22:42:12.432Z,90.90
2017-09-07T22:44:41.606Z,90.40
2017-09-07T22:47:10.037Z,90.40
2017-09-07T22:49:38.639Z,90.50
2017-09-07T22:52:07.220Z,90.10
2017-09-07T22:54:35.639Z,90.20
2017-09-07T22:57:04.052Z,90.10
2017-09-07T22:59:32.450Z,90.20
2017-09-07T23:02:00.855Z,90.10
2017-09-07T23:04:29.315Z,90.20
2017-09-07T23:06:57.770Z,90.10
2017-09-07T23:09:26.950Z,90.30
2017-09-07T23:11:56.132Z,90.10
2017-09-07T23:14:24.612Z,90.10
2017-09-07T23:16:53.283Z,90.00
2017-09-07T23:19:21.888Z,90.00
2017-09-07T23:21:50.462Z,89.90
2017-09-07T23:24:18.866Z,89.30
2017-09-07T23:26:48.085Z,89.10
2017-09-07T23:29:17.249Z,89.10
2017-09-07T23:31:45.752Z,89.10
2017-09-07T23:34:14.983Z,89.50
2017-09-07T23:36:43.454Z,89.40
2017-09-07T23:39:11.856Z,90.00
2017-09-07T23:41:40.294Z,90.30
2017-09-07T23:44:09.473Z,90.30
2017-09-07T23:46:37.919Z,90.30
2017-09-07T23:49:06.493Z,90.30
2017-09-07T23:51:34.942Z,90.60
2017-09-07T23:54:03.352Z,90.60
2017-09-07T23:56:32.424Z,91.10
2017-09-07T23:59:00.814Z,91.50
